sensor_id;sensor_type;location;lat;lon;timestamp;temperature;humidity
9497;DHT22;4786;51.270;4.456;2022-08-19T00:01:54;19.80;99.90
9497;DHT22;4786;51.270;4.456;2022-08-19T00:04:24;19.70;99.90
9497;DHT22;4786;51.270;4.456;2022-08-19T00:06:51;19.70;99.90
9497;DHT22;4786;51.270;4.456;2022-08-19T00:09:18;19.70;99.90
9497;DHT22;4786;51.270;4.456;2022-08-19T00:11:45;19.70;99.90
9497;DHT22;4786;51.270;4.456;2022-08-19T00:14:13;19.70;99.90
9497;DHT22;4786;51.270;4.456;2022-08-19T00:16:40;19.60;99.90
9497;DHT22;4786;51.270;4.456;2022-08-19T00:19:08;19.60;99.90
9497;DHT22;4786;51.270;4.456;2022-08-19T00:21:34;19.60;99.90
9497;DHT22;4786;51.270;4.456;2022-08-19T00:24:09;19.60;99.90
9497;DHT22;4786;51.270;4.456;2022-08-19T00:26:36;19.60;99.90
9497;DHT22;4786;51.270;4.456;2022-08-19T00:29:07;19.60;99.90
9497;DHT22;4786;51.270;4.456;2022-08-19T00:31:34;19.60;99.90
9497;DHT22;4786;51.270;4.456;2022-08-19T00:33:59;19.60;99.90
9497;DHT22;4786;51.270;4.456;2022-08-19T00:36:25;19.60;99.90
9497;DHT22;4786;51.270;4.456;2022-08-19T00:38:52;19.60;99.90
9497;DHT22;4786;51.270;4.456;2022-08-19T00:41:20;19.60;99.90
9497;DHT22;4786;51.270;4.456;2022-08-19T00:44:01;19.60;99.90
9497;DHT22;4786;51.270;4.456;2022-08-19T00:46:28;19.60;99.90
9497;DHT22;4786;51.270;4.456;2022-08-19T00:48:54;19.60;99.90
9497;DHT22;4786;51.270;4.456;2022-08-19T00:51:22;19.60;99.90
9497;DHT22;4786;51.270;4.456;2022-08-19T00:53:48;19.60;99.90
9497;DHT22;4786;51.270;4.456;2022-08-19T00:56:15;19.60;99.90
9497;DHT22;4786;51.270;4.456;2022-08-19T00:58:41;19.60;99.90
9497;DHT22;4786;51.270;4.456;2022-08-19T01:01:07;19.60;99.90
9497;DHT22;4786;51.270;4.456;2022-08-19T01:03:33;19.60;99.90
9497;DHT22;4786;51.270;4.456;2022-08-19T01:06:00;19.50;99.90
9497;DHT22;4786;51.270;4.456;2022-08-19T01:08:26;19.50;99.90
9497;DHT22;4786;51.270;4.456;2022-08-19T01:10:55;19.40;99.90
9497;DHT22;4786;51.270;4.456;2022-08-19T01:13:28;19.50;99.90
9497;DHT22;4786;51.270;4.456;2022-08-19T01:16:02;19.40;99.90
9497;DHT22;4786;51.270;4.456;2022-08-19T01:18:29;19.40;99.90
9497;DHT22;4786;51.270;4.456;2022-08-19T01:20:58;19.40;99.90
9497;DHT22;4786;51.270;4.456;2022-08-19T01:23:27;19.40;99.90
9497;DHT22;4786;51.270;4.456;2022-08-19T01:26:10;19.30;99.90
9497;DHT22;4786;51.270;4.456;2022-08-19T01:28:36;19.20;99.90
9497;DHT22;4786;51.270;4.456;2022-08-19T01:31:02;19.20;99.90
9497;DHT22;4786;51.270;4.456;2022-08-19T01:33:28;19.20;99.90
9497;DHT22;4786;51.270;4.456;2022-08-19T01:36:14;19.20;99.90
9497;DHT22;4786;51.270;4.456;2022-08-19T01:38:42;19.20;99.90
9497;DHT22;4786;51.270;4.456;2022-08-19T01:41:11;19.10;99.90
9497;DHT22;4786;51.270;4.456;2022-08-19T01:43:37;19.10;99.90
9497;DHT22;4786;51.270;4.456;2022-08-19T01:46:04;19.10;99.90
9497;DHT22;4786;51.270;4.456;2022-08-19T01:48:40;19.10;99.90
9497;DHT22;4786;51.270;4.456;2022-08-19T01:51:07;19.10;99.90
9497;DHT22;4786;51.270;4.456;2022-08-19T01:53:34;19.10;99.90
9497;DHT22;4786;51.270;4.456;2022-08-19T01:56:01;19.10;99.90
9497;DHT22;4786;51.270;4.456;2022-08-19T01:58:32;19.20;99.90
9497;DHT22;4786;51.270;4.456;2022-08-19T02:00:58;19.20;99.90
9497;DHT22;4786;51.270;4.456;2022-08-19T02:03:25;19.20;99.90
9497;DHT22;4786;51.270;4.456;2022-08-19T02:06:01;19.20;99.90
9497;DHT22;4786;51.270;4.456;2022-08-19T02:08:29;19.20;99.90
9497;DHT22;4786;51.270;4.456;2022-08-19T02:10:55;19.20;99.90
9497;DHT22;4786;51.270;4.456;2022-08-19T02:13:22;19.20;99.90
9497;DHT22;4786;51.270;4.456;2022-08-19T02:15:48;19.30;99.90
9497;DHT22;4786;51.270;4.456;2022-08-19T02:18:14;19.20;99.90
9497;DHT22;4786;51.270;4.456;2022-08-19T02:20:42;19.30;99.90
9497;DHT22;4786;51.270;4.456;2022-08-19T02:23:10;19.30;99.90
9497;DHT22;4786;51.270;4.456;2022-08-19T02:25:37;19.20;99.90
9497;DHT22;4786;51.270;4.456;2022-08-19T02:28:04;19.30;99.90
9497;DHT22;4786;51.270;4.456;2022-08-19T02:30:30;19.20;99.90
9497;DHT22;4786;51.270;4.456;2022-08-19T02:32:57;19.20;99.90
9497;DHT22;4786;51.270;4.456;2022-08-19T02:35:23;19.20;99.90
9497;DHT22;4786;51.270;4.456;2022-08-19T02:37:49;19.20;99.90
9497;DHT22;4786;51.270;4.456;2022-08-19T02:40:34;19.20;99.90
9497;DHT22;4786;51.270;4.456;2022-08-19T02:43:08;19.20;99.90
9497;DHT22;4786;51.270;4.456;2022-08-19T02:45:36;19.10;99.90
9497;DHT22;4786;51.270;4.456;2022-08-19T02:48:03;19.00;99.90
9497;DHT22;4786;51.270;4.456;2022-08-19T02:50:29;19.00;99.90
9497;DHT22;4786;51.270;4.456;2022-08-19T02:52:55;19.00;99.90
9497;DHT22;4786;51.270;4.456;2022-08-19T02:55:21;19.00;99.90
9497;DHT22;4786;51.270;4.456;2022-08-19T02:57:47;19.00;99.90
9497;DHT22;4786;51.270;4.456;2022-08-19T03:00:14;19.00;99.90
9497;DHT22;4786;51.270;4.456;2022-08-19T03:02:40;19.00;99.90
9497;DHT22;4786;51.270;4.456;2022-08-19T03:05:07;19.00;99.90
9497;DHT22;4786;51.270;4.456;2022-08-19T03:07:34;18.90;99.90
9497;DHT22;4786;51.270;4.456;2022-08-19T03:10:00;18.90;99.90
9497;DHT22;4786;51.270;4.456;2022-08-19T03:12:26;18.90;99.90
9497;DHT22;4786;51.270;4.456;2022-08-19T03:14:52;18.90;99.90
9497;DHT22;4786;51.270;4.456;2022-08-19T03:17:18;18.80;99.90
9497;DHT22;4786;51.270;4.456;2022-08-19T03:19:44;18.90;99.90
9497;DHT22;4786;51.270;4.456;2022-08-19T03:22:10;18.90;99.90
9497;DHT22;4786;51.270;4.456;2022-08-19T03:24:37;18.90;99.90
9497;DHT22;4786;51.270;4.456;2022-08-19T03:27:03;18.90;99.90
9497;DHT22;4786;51.270;4.456;2022-08-19T03:29:31;18.90;99.90
9497;DHT22;4786;51.270;4.456;2022-08-19T03:32:02;18.90;99.90
9497;DHT22;4786;51.270;4.456;2022-08-19T03:34:29;18.90;99.90
9497;DHT22;4786;51.270;4.456;2022-08-19T03:36:59;18.90;99.90
9497;DHT22;4786;51.270;4.456;2022-08-19T03:39:26;18.80;99.90
9497;DHT22;4786;51.270;4.456;2022-08-19T03:41:54;18.80;99.90
9497;DHT22;4786;51.270;4.456;2022-08-19T03:44:23;18.70;99.90
9497;DHT22;4786;51.270;4.456;2022-08-19T03:46:52;18.70;99.90
9497;DHT22;4786;51.270;4.456;2022-08-19T03:49:18;18.70;99.90
9497;DHT22;4786;51.270;4.456;2022-08-19T03:51:46;18.70;99.90
9497;DHT22;4786;51.270;4.456;2022-08-19T03:54:14;18.70;99.90
9497;DHT22;4786;51.270;4.456;2022-08-19T03:56:43;18.70;99.90
9497;DHT22;4786;51.270;4.456;2022-08-19T03:59:14;18.70;99.90
9497;DHT22;4786;51.270;4.456;2022-08-19T04:01:41;18.70;99.90
9497;DHT22;4786;51.270;4.456;2022-08-19T04:04:07;18.70;99.90
9497;DHT22;4786;51.270;4.456;2022-08-19T04:06:35;18.60;99.90
9497;DHT22;4786;51.270;4.456;2022-08-19T04:09:04;18.70;99.90
9497;DHT22;4786;51.270;4.456;2022-08-19T04:11:36;18.70;99.90
9497;DHT22;4786;51.270;4.456;2022-08-19T04:14:07;18.60;99.90
9497;DHT22;4786;51.270;4.456;2022-08-19T04:16:33;18.60;99.90
9497;DHT22;4786;51.270;4.456;2022-08-19T04:19:00;18.60;99.90
9497;DHT22;4786;51.270;4.456;2022-08-19T04:21:27;18.60;99.90
9497;DHT22;4786;51.270;4.456;2022-08-19T04:23:54;18.70;99.90
9497;DHT22;4786;51.270;4.456;2022-08-19T04:26:25;18.70;99.90
9497;DHT22;4786;51.270;4.456;2022-08-19T04:28:51;18.80;99.90
9497;DHT22;4786;51.270;4.456;2022-08-19T04:31:23;18.70;99.90
9497;DHT22;4786;51.270;4.456;2022-08-19T04:33:57;18.70;99.90
9497;DHT22;4786;51.270;4.456;2022-08-19T04:36:28;18.80;99.90
9497;DHT22;4786;51.270;4.456;2022-08-19T04:38:56;18.80;99.90
9497;DHT22;4786;51.270;4.456;2022-08-19T04:41:22;18.80;99.90
9497;DHT22;4786;51.270;4.456;2022-08-19T04:44:07;18.80;99.90
9497;DHT22;4786;51.270;4.456;2022-08-19T04:46:33;18.70;99.90
9497;DHT22;4786;51.270;4.456;2022-08-19T04:49:02;18.70;99.90
9497;DHT22;4786;51.270;4.456;2022-08-19T04:51:28;18.70;99.90
9497;DHT22;4786;51.270;4.456;2022-08-19T04:53:56;18.70;99.90
9497;DHT22;4786;51.270;4.456;2022-08-19T04:56:22;18.70;99.90
9497;DHT22;4786;51.270;4.456;2022-08-19T04:58:52;18.70;99.90
9497;DHT22;4786;51.270;4.456;2022-08-19T05:01:26;18.70;99.90
9497;DHT22;4786;51.270;4.456;2022-08-19T05:03:54;18.70;99.90
9497;DHT22;4786;51.270;4.456;2022-08-19T05:06:22;18.60;99.90
9497;DHT22;4786;51.270;4.456;2022-08-19T05:08:48;18.70;99.90
9497;DHT22;4786;51.270;4.456;2022-08-19T05:11:23;18.70;99.90
9497;DHT22;4786;51.270;4.456;2022-08-19T05:13:49;18.70;99.90
9497;DHT22;4786;51.270;4.456;2022-08-19T05:16:17;18.80;99.90
9497;DHT22;4786;51.270;4.456;2022-08-19T05:18:44;18.80;99.90
9497;DHT22;4786;51.270;4.456;2022-08-19T05:21:28;18.80;99.90
9497;DHT22;4786;51.270;4.456;2022-08-19T05:24:13;18.80;99.90
9497;DHT22;4786;51.270;4.456;2022-08-19T05:26:43;18.80;99.90
9497;DHT22;4786;51.270;4.456;2022-08-19T05:29:12;18.90;99.90
9497;DHT22;4786;51.270;4.456;2022-08-19T05:31:38;18.90;99.90
9497;DHT22;4786;51.270;4.456;2022-08-19T05:34:05;19.00;99.90
9497;DHT22;4786;51.270;4.456;2022-08-19T05:36:38;19.10;99.90
9497;DHT22;4786;51.270;4.456;2022-08-19T05:39:16;19.10;99.90
9497;DHT22;4786;51.270;4.456;2022-08-19T05:41:48;19.30;99.90
9497;DHT22;4786;51.270;4.456;2022-08-19T05:44:14;19.50;99.90
9497;DHT22;4786;51.270;4.456;2022-08-19T05:46:43;19.60;99.90
9497;DHT22;4786;51.270;4.456;2022-08-19T05:49:09;19.70;99.90
9497;DHT22;4786;51.270;4.456;2022-08-19T05:51:36;19.90;99.90
9497;DHT22;4786;51.270;4.456;2022-08-19T05:54:05;20.10;99.90
9497;DHT22;4786;51.270;4.456;2022-08-19T05:56:33;20.20;99.90
9497;DHT22;4786;51.270;4.456;2022-08-19T05:59:02;20.70;99.90
9497;DHT22;4786;51.270;4.456;2022-08-19T06:01:29;21.40;99.90
9497;DHT22;4786;51.270;4.456;2022-08-19T06:03:55;22.20;99.90
9497;DHT22;4786;51.270;4.456;2022-08-19T06:06:21;23.10;99.90
9497;DHT22;4786;51.270;4.456;2022-08-19T06:08:47;24.10;99.90
9497;DHT22;4786;51.270;4.456;2022-08-19T06:11:38;25.10;99.90
9497;DHT22;4786;51.270;4.456;2022-08-19T06:14:16;26.00;99.90
9497;DHT22;4786;51.270;4.456;2022-08-19T06:16:43;26.40;99.90
9497;DHT22;4786;51.270;4.456;2022-08-19T06:19:13;26.30;99.90
9497;DHT22;4786;51.270;4.456;2022-08-19T06:21:40;26.00;99.90
9497;DHT22;4786;51.270;4.456;2022-08-19T06:24:10;25.50;99.90
9497;DHT22;4786;51.270;4.456;2022-08-19T06:26:37;24.90;99.90
9497;DHT22;4786;51.270;4.456;2022-08-19T06:29:04;24.30;99.90
9497;DHT22;4786;51.270;4.456;2022-08-19T06:31:33;23.90;99.90
9497;DHT22;4786;51.270;4.456;2022-08-19T06:34:01;23.60;99.90
9497;DHT22;4786;51.270;4.456;2022-08-19T06:36:33;23.20;99.90
9497;DHT22;4786;51.270;4.456;2022-08-19T06:39:05;22.80;99.90
9497;DHT22;4786;51.270;4.456;2022-08-19T06:41:35;22.50;99.90
9497;DHT22;4786;51.270;4.456;2022-08-19T06:44:01;22.30;99.90
9497;DHT22;4786;51.270;4.456;2022-08-19T06:46:27;22.00;99.90
9497;DHT22;4786;51.270;4.456;2022-08-19T06:48:53;22.00;99.90
9497;DHT22;4786;51.270;4.456;2022-08-19T06:51:20;21.80;99.90
9497;DHT22;4786;51.270;4.456;2022-08-19T06:53:47;21.60;99.90
9497;DHT22;4786;51.270;4.456;2022-08-19T06:56:15;21.60;99.90
9497;DHT22;4786;51.270;4.456;2022-08-19T06:58:41;21.70;99.90
9497;DHT22;4786;51.270;4.456;2022-08-19T07:01:08;21.70;99.90
9497;DHT22;4786;51.270;4.456;2022-08-19T07:03:35;21.70;99.90
9497;DHT22;4786;51.270;4.456;2022-08-19T07:06:08;21.70;99.90
9497;DHT22;4786;51.270;4.456;2022-08-19T07:08:35;21.90;99.90
9497;DHT22;4786;51.270;4.456;2022-08-19T07:11:06;22.00;99.90
9497;DHT22;4786;51.270;4.456;2022-08-19T07:13:33;22.30;99.90
9497;DHT22;4786;51.270;4.456;2022-08-19T07:16:13;22.50;99.90
9497;DHT22;4786;51.270;4.456;2022-08-19T07:18:40;22.60;99.90
9497;DHT22;4786;51.270;4.456;2022-08-19T07:21:08;22.50;99.90
9497;DHT22;4786;51.270;4.456;2022-08-19T07:23:34;22.40;99.90
9497;DHT22;4786;51.270;4.456;2022-08-19T07:26:11;22.40;99.90
9497;DHT22;4786;51.270;4.456;2022-08-19T07:28:37;22.30;99.90
9497;DHT22;4786;51.270;4.456;2022-08-19T07:31:06;22.20;99.90
9497;DHT22;4786;51.270;4.456;2022-08-19T07:33:33;22.20;99.90
9497;DHT22;4786;51.270;4.456;2022-08-19T07:35:59;22.10;99.90
9497;DHT22;4786;51.270;4.456;2022-08-19T07:38:25;22.10;99.90
9497;DHT22;4786;51.270;4.456;2022-08-19T07:40:51;22.10;99.90
9497;DHT22;4786;51.270;4.456;2022-08-19T07:43:17;22.10;99.90
9497;DHT22;4786;51.270;4.456;2022-08-19T07:45:48;22.10;99.90
9497;DHT22;4786;51.270;4.456;2022-08-19T07:48:14;22.10;99.90
9497;DHT22;4786;51.270;4.456;2022-08-19T07:50:40;22.10;99.90
9497;DHT22;4786;51.270;4.456;2022-08-19T07:53:06;22.10;99.90
9497;DHT22;4786;51.270;4.456;2022-08-19T07:55:32;22.10;99.90
9497;DHT22;4786;51.270;4.456;2022-08-19T07:57:59;22.10;99.90
9497;DHT22;4786;51.270;4.456;2022-08-19T08:00:25;22.10;99.90
9497;DHT22;4786;51.270;4.456;2022-08-19T08:02:52;22.10;99.90
9497;DHT22;4786;51.270;4.456;2022-08-19T08:05:18;22.20;99.90
9497;DHT22;4786;51.270;4.456;2022-08-19T08:08:03;22.10;99.90
9497;DHT22;4786;51.270;4.456;2022-08-19T08:10:59;22.10;99.90
9497;DHT22;4786;51.270;4.456;2022-08-19T08:13:25;22.10;99.90
9497;DHT22;4786;51.270;4.456;2022-08-19T08:15:52;22.10;99.90
9497;DHT22;4786;51.270;4.456;2022-08-19T08:18:18;22.20;99.90
9497;DHT22;4786;51.270;4.456;2022-08-19T08:20:46;22.10;99.90
9497;DHT22;4786;51.270;4.456;2022-08-19T08:23:12;22.20;99.90
9497;DHT22;4786;51.270;4.456;2022-08-19T08:25:57;22.20;99.90
9497;DHT22;4786;51.270;4.456;2022-08-19T08:28:24;22.20;99.90
9497;DHT22;4786;51.270;4.456;2022-08-19T08:30:50;22.30;99.90
9497;DHT22;4786;51.270;4.456;2022-08-19T08:33:22;22.40;99.90
9497;DHT22;4786;51.270;4.456;2022-08-19T08:35:49;22.50;99.90
9497;DHT22;4786;51.270;4.456;2022-08-19T08:38:16;22.50;99.90
9497;DHT22;4786;51.270;4.456;2022-08-19T08:40:50;22.60;99.90
9497;DHT22;4786;51.270;4.456;2022-08-19T08:43:27;22.60;99.90
9497;DHT22;4786;51.270;4.456;2022-08-19T08:46:04;22.70;99.90
9497;DHT22;4786;51.270;4.456;2022-08-19T08:48:32;22.80;99.90
9497;DHT22;4786;51.270;4.456;2022-08-19T08:51:05;22.90;99.90
9497;DHT22;4786;51.270;4.456;2022-08-19T08:53:34;23.00;99.90
9497;DHT22;4786;51.270;4.456;2022-08-19T08:56:03;22.90;99.90
9497;DHT22;4786;51.270;4.456;2022-08-19T08:58:45;22.90;99.90
9497;DHT22;4786;51.270;4.456;2022-08-19T09:01:12;22.80;99.90
9497;DHT22;4786;51.270;4.456;2022-08-19T09:03:42;22.80;99.90
9497;DHT22;4786;51.270;4.456;2022-08-19T09:09:34;22.60;99.90
9497;DHT22;4786;51.270;4.456;2022-08-19T09:17:21;22.60;99.90
9497;DHT22;4786;51.270;4.456;2022-08-19T09:19:56;22.50;99.90
9497;DHT22;4786;51.270;4.456;2022-08-19T09:22:23;22.50;99.90
9497;DHT22;4786;51.270;4.456;2022-08-19T09:24:50;22.50;99.90
9497;DHT22;4786;51.270;4.456;2022-08-19T09:27:21;22.50;99.90
9497;DHT22;4786;51.270;4.456;2022-08-19T09:29:49;22.50;99.90
9497;DHT22;4786;51.270;4.456;2022-08-19T09:32:16;22.50;99.90
9497;DHT22;4786;51.270;4.456;2022-08-19T09:34:43;22.50;99.90
9497;DHT22;4786;51.270;4.456;2022-08-19T09:37:10;22.50;99.90
9497;DHT22;4786;51.270;4.456;2022-08-19T09:39:38;22.50;99.90
9497;DHT22;4786;51.270;4.456;2022-08-19T09:42:04;22.40;99.90
9497;DHT22;4786;51.270;4.456;2022-08-19T09:44:34;22.40;99.90
9497;DHT22;4786;51.270;4.456;2022-08-19T09:46:59;22.40;99.90
9497;DHT22;4786;51.270;4.456;2022-08-19T09:49:25;22.50;99.90
9497;DHT22;4786;51.270;4.456;2022-08-19T09:51:52;22.40;99.90
9497;DHT22;4786;51.270;4.456;2022-08-19T09:54:21;22.50;99.90
9497;DHT22;4786;51.270;4.456;2022-08-19T09:56:48;22.50;99.90
9497;DHT22;4786;51.270;4.456;2022-08-19T09:59:14;22.50;99.90
9497;DHT22;4786;51.270;4.456;2022-08-19T10:01:41;22.40;99.90
9497;DHT22;4786;51.270;4.456;2022-08-19T10:04:07;22.40;99.90
9497;DHT22;4786;51.270;4.456;2022-08-19T10:06:38;22.40;99.90
9497;DHT22;4786;51.270;4.456;2022-08-19T10:09:06;22.40;99.90
9497;DHT22;4786;51.270;4.456;2022-08-19T10:11:34;22.50;99.90
9497;DHT22;4786;51.270;4.456;2022-08-19T10:14:01;22.50;99.90
9497;DHT22;4786;51.270;4.456;2022-08-19T10:16:28;22.50;99.90
9497;DHT22;4786;51.270;4.456;2022-08-19T10:18:54;22.60;99.90
9497;DHT22;4786;51.270;4.456;2022-08-19T10:21:26;22.60;99.90
9497;DHT22;4786;51.270;4.456;2022-08-19T10:23:55;22.80;99.90
9497;DHT22;4786;51.270;4.456;2022-08-19T10:26:25;22.80;99.90
9497;DHT22;4786;51.270;4.456;2022-08-19T10:28:52;23.00;99.90
9497;DHT22;4786;51.270;4.456;2022-08-19T10:31:27;23.10;99.90
9497;DHT22;4786;51.270;4.456;2022-08-19T10:33:53;23.20;99.90
9497;DHT22;4786;51.270;4.456;2022-08-19T10:36:26;23.30;99.90
9497;DHT22;4786;51.270;4.456;2022-08-19T10:38:53;23.40;99.90
9497;DHT22;4786;51.270;4.456;2022-08-19T10:41:23;23.30;99.90
9497;DHT22;4786;51.270;4.456;2022-08-19T10:43:58;23.30;99.90
9497;DHT22;4786;51.270;4.456;2022-08-19T10:46:26;23.40;99.90
9497;DHT22;4786;51.270;4.456;2022-08-19T10:48:52;23.50;99.90
9497;DHT22;4786;51.270;4.456;2022-08-19T10:51:18;23.50;99.90
9497;DHT22;4786;51.270;4.456;2022-08-19T10:54:03;23.50;99.90
9497;DHT22;4786;51.270;4.456;2022-08-19T10:56:29;23.50;99.90
9497;DHT22;4786;51.270;4.456;2022-08-19T10:59:15;23.40;99.90
9497;DHT22;4786;51.270;4.456;2022-08-19T11:01:43;23.50;99.90
9497;DHT22;4786;51.270;4.456;2022-08-19T11:04:10;23.50;99.90
9497;DHT22;4786;51.270;4.456;2022-08-19T11:06:40;23.50;99.90
9497;DHT22;4786;51.270;4.456;2022-08-19T11:09:07;23.50;99.90
9497;DHT22;4786;51.270;4.456;2022-08-19T11:11:34;23.50;99.90
9497;DHT22;4786;51.270;4.456;2022-08-19T11:14:12;23.30;99.90
9497;DHT22;4786;51.270;4.456;2022-08-19T11:16:38;23.30;99.90
9497;DHT22;4786;51.270;4.456;2022-08-19T11:19:09;23.30;99.90
9497;DHT22;4786;51.270;4.456;2022-08-19T11:21:38;23.30;99.90
9497;DHT22;4786;51.270;4.456;2022-08-19T11:24:07;23.20;99.90
9497;DHT22;4786;51.270;4.456;2022-08-19T11:26:41;23.20;99.90
9497;DHT22;4786;51.270;4.456;2022-08-19T11:29:09;23.30;99.90
9497;DHT22;4786;51.270;4.456;2022-08-19T11:31:44;23.40;99.90
9497;DHT22;4786;51.270;4.456;2022-08-19T11:34:14;23.50;99.90
9497;DHT22;4786;51.270;4.456;2022-08-19T11:36:43;23.60;99.90
9497;DHT22;4786;51.270;4.456;2022-08-19T11:39:12;23.70;99.90
9497;DHT22;4786;51.270;4.456;2022-08-19T11:41:39;23.70;99.90
9497;DHT22;4786;51.270;4.456;2022-08-19T11:44:05;23.70;99.90
9497;DHT22;4786;51.270;4.456;2022-08-19T11:46:33;23.80;99.90
9497;DHT22;4786;51.270;4.456;2022-08-19T11:49:01;23.90;99.90
9497;DHT22;4786;51.270;4.456;2022-08-19T11:51:28;23.90;99.90
9497;DHT22;4786;51.270;4.456;2022-08-19T11:53:57;24.00;99.90
9497;DHT22;4786;51.270;4.456;2022-08-19T11:56:24;24.00;99.90
9497;DHT22;4786;51.270;4.456;2022-08-19T11:58:51;24.10;99.90
9497;DHT22;4786;51.270;4.456;2022-08-19T12:01:19;24.20;99.90
9497;DHT22;4786;51.270;4.456;2022-08-19T12:03:47;24.30;99.90
9497;DHT22;4786;51.270;4.456;2022-08-19T12:06:18;24.50;99.90
9497;DHT22;4786;51.270;4.456;2022-08-19T12:08:44;24.60;99.90
9497;DHT22;4786;51.270;4.456;2022-08-19T12:11:11;24.70;99.90
9497;DHT22;4786;51.270;4.456;2022-08-19T12:13:39;24.80;99.90
9497;DHT22;4786;51.270;4.456;2022-08-19T12:16:14;25.00;99.90
9497;DHT22;4786;51.270;4.456;2022-08-19T12:18:41;25.10;99.90
9497;DHT22;4786;51.270;4.456;2022-08-19T12:21:09;25.30;99.90
9497;DHT22;4786;51.270;4.456;2022-08-19T12:23:36;25.40;99.90
9497;DHT22;4786;51.270;4.456;2022-08-19T12:26:03;25.50;99.90
9497;DHT22;4786;51.270;4.456;2022-08-19T12:28:30;25.60;99.90
9497;DHT22;4786;51.270;4.456;2022-08-19T12:30:56;25.60;99.90
9497;DHT22;4786;51.270;4.456;2022-08-19T12:33:22;25.60;99.90
9497;DHT22;4786;51.270;4.456;2022-08-19T12:35:51;25.70;99.90
9497;DHT22;4786;51.270;4.456;2022-08-19T12:38:17;25.90;99.90
9497;DHT22;4786;51.270;4.456;2022-08-19T12:40:47;26.00;99.90
9497;DHT22;4786;51.270;4.456;2022-08-19T12:43:14;26.00;99.90
9497;DHT22;4786;51.270;4.456;2022-08-19T12:45:41;26.00;99.90
9497;DHT22;4786;51.270;4.456;2022-08-19T12:48:08;26.00;99.90
9497;DHT22;4786;51.270;4.456;2022-08-19T12:50:34;26.00;99.90
9497;DHT22;4786;51.270;4.456;2022-08-19T12:53:00;25.90;99.90
9497;DHT22;4786;51.270;4.456;2022-08-19T12:55:26;25.80;99.90
9497;DHT22;4786;51.270;4.456;2022-08-19T12:57:53;25.80;99.90
9497;DHT22;4786;51.270;4.456;2022-08-19T13:00:21;25.80;99.90
9497;DHT22;4786;51.270;4.456;2022-08-19T13:02:49;25.80;99.90
9497;DHT22;4786;51.270;4.456;2022-08-19T13:05:19;25.70;99.90
9497;DHT22;4786;51.270;4.456;2022-08-19T13:07:46;25.80;99.90
9497;DHT22;4786;51.270;4.456;2022-08-19T13:10:15;25.80;99.90
9497;DHT22;4786;51.270;4.456;2022-08-19T13:12:44;25.80;99.90
9497;DHT22;4786;51.270;4.456;2022-08-19T13:15:11;25.80;99.90
9497;DHT22;4786;51.270;4.456;2022-08-19T13:17:39;25.80;99.90
9497;DHT22;4786;51.270;4.456;2022-08-19T13:20:08;25.90;99.90
9497;DHT22;4786;51.270;4.456;2022-08-19T13:22:36;25.90;99.90
9497;DHT22;4786;51.270;4.456;2022-08-19T13:25:04;26.00;99.90
9497;DHT22;4786;51.270;4.456;2022-08-19T13:27:31;26.00;99.90
9497;DHT22;4786;51.270;4.456;2022-08-19T13:29:56;26.10;99.90
9497;DHT22;4786;51.270;4.456;2022-08-19T13:32:41;26.20;99.90
9497;DHT22;4786;51.270;4.456;2022-08-19T13:35:25;26.20;99.90
9497;DHT22;4786;51.270;4.456;2022-08-19T13:37:51;26.30;99.90
9497;DHT22;4786;51.270;4.456;2022-08-19T13:40:20;26.40;99.90
9497;DHT22;4786;51.270;4.456;2022-08-19T13:42:50;26.20;99.90
9497;DHT22;4786;51.270;4.456;2022-08-19T13:45:18;26.30;99.90
9497;DHT22;4786;51.270;4.456;2022-08-19T13:47:49;26.20;99.90
9497;DHT22;4786;51.270;4.456;2022-08-19T13:50:18;26.30;99.90
9497;DHT22;4786;51.270;4.456;2022-08-19T13:52:44;26.50;99.90
9497;DHT22;4786;51.270;4.456;2022-08-19T13:55:11;26.60;99.90
9497;DHT22;4786;51.270;4.456;2022-08-19T13:57:37;26.70;99.90
9497;DHT22;4786;51.270;4.456;2022-08-19T14:00:14;26.70;99.90
9497;DHT22;4786;51.270;4.456;2022-08-19T14:02:41;26.70;99.90
9497;DHT22;4786;51.270;4.456;2022-08-19T14:05:09;26.90;99.90
9497;DHT22;4786;51.270;4.456;2022-08-19T14:07:35;26.80;99.90
9497;DHT22;4786;51.270;4.456;2022-08-19T14:10:04;26.90;99.90
9497;DHT22;4786;51.270;4.456;2022-08-19T14:12:30;26.90;99.90
9497;DHT22;4786;51.270;4.456;2022-08-19T14:14:57;26.80;99.90
9497;DHT22;4786;51.270;4.456;2022-08-19T14:17:23;26.70;99.90
9497;DHT22;4786;51.270;4.456;2022-08-19T14:19:55;26.80;99.90
9497;DHT22;4786;51.270;4.456;2022-08-19T14:22:21;26.70;99.90
9497;DHT22;4786;51.270;4.456;2022-08-19T14:24:48;26.50;99.90
9497;DHT22;4786;51.270;4.456;2022-08-19T14:27:13;26.40;99.90
9497;DHT22;4786;51.270;4.456;2022-08-19T14:29:39;26.40;99.90
9497;DHT22;4786;51.270;4.456;2022-08-19T14:32:05;26.40;99.90
9497;DHT22;4786;51.270;4.456;2022-08-19T14:34:32;26.20;99.90
9497;DHT22;4786;51.270;4.456;2022-08-19T14:36:59;26.20;99.90
9497;DHT22;4786;51.270;4.456;2022-08-19T14:39:25;26.00;99.90
9497;DHT22;4786;51.270;4.456;2022-08-19T14:41:51;25.90;99.90
9497;DHT22;4786;51.270;4.456;2022-08-19T14:44:17;25.80;99.90
9497;DHT22;4786;51.270;4.456;2022-08-19T14:46:43;25.70;99.90
9497;DHT22;4786;51.270;4.456;2022-08-19T14:49:10;25.60;99.90
9497;DHT22;4786;51.270;4.456;2022-08-19T14:51:36;25.50;99.90
9497;DHT22;4786;51.270;4.456;2022-08-19T14:54:02;25.30;99.90
9497;DHT22;4786;51.270;4.456;2022-08-19T14:56:29;25.10;99.90
9497;DHT22;4786;51.270;4.456;2022-08-19T14:58:56;25.00;99.90
9497;DHT22;4786;51.270;4.456;2022-08-19T15:01:24;24.90;99.90
9497;DHT22;4786;51.270;4.456;2022-08-19T15:03:50;24.70;99.90
9497;DHT22;4786;51.270;4.456;2022-08-19T15:06:18;24.50;99.90
9497;DHT22;4786;51.270;4.456;2022-08-19T15:08:44;24.40;99.90
9497;DHT22;4786;51.270;4.456;2022-08-19T15:11:15;24.30;99.90
9497;DHT22;4786;51.270;4.456;2022-08-19T15:13:42;24.20;99.90
9497;DHT22;4786;51.270;4.456;2022-08-19T15:16:10;24.00;99.90
9497;DHT22;4786;51.270;4.456;2022-08-19T15:18:36;23.90;99.90
9497;DHT22;4786;51.270;4.456;2022-08-19T15:21:03;23.90;99.90
9497;DHT22;4786;51.270;4.456;2022-08-19T15:23:30;23.80;99.90
9497;DHT22;4786;51.270;4.456;2022-08-19T15:25:56;23.80;99.90
9497;DHT22;4786;51.270;4.456;2022-08-19T15:28:23;23.90;99.90
9497;DHT22;4786;51.270;4.456;2022-08-19T15:30:49;23.90;99.90
9497;DHT22;4786;51.270;4.456;2022-08-19T15:33:16;23.90;99.90
9497;DHT22;4786;51.270;4.456;2022-08-19T15:35:43;24.00;99.90
9497;DHT22;4786;51.270;4.456;2022-08-19T15:38:10;24.00;99.90
9497;DHT22;4786;51.270;4.456;2022-08-19T15:40:39;24.10;99.90
9497;DHT22;4786;51.270;4.456;2022-08-19T15:43:06;24.20;99.90
9497;DHT22;4786;51.270;4.456;2022-08-19T15:45:32;24.20;99.90
9497;DHT22;4786;51.270;4.456;2022-08-19T15:48:03;24.20;99.90
9497;DHT22;4786;51.270;4.456;2022-08-19T15:50:29;24.40;99.90
9497;DHT22;4786;51.270;4.456;2022-08-19T15:53:01;24.40;99.90
9497;DHT22;4786;51.270;4.456;2022-08-19T15:55:41;24.40;99.90
9497;DHT22;4786;51.270;4.456;2022-08-19T15:58:10;24.40;99.90
9497;DHT22;4786;51.270;4.456;2022-08-19T16:00:57;24.40;99.90
9497;DHT22;4786;51.270;4.456;2022-08-19T16:03:41;24.40;99.90
9497;DHT22;4786;51.270;4.456;2022-08-19T16:06:25;24.40;99.90
9497;DHT22;4786;51.270;4.456;2022-08-19T16:08:53;24.50;99.90
9497;DHT22;4786;51.270;4.456;2022-08-19T16:11:20;24.60;99.90
9497;DHT22;4786;51.270;4.456;2022-08-19T16:13:48;24.60;99.90
9497;DHT22;4786;51.270;4.456;2022-08-19T16:16:22;24.60;99.90
9497;DHT22;4786;51.270;4.456;2022-08-19T16:18:49;24.60;99.90
9497;DHT22;4786;51.270;4.456;2022-08-19T16:21:19;24.50;99.90